sensor_id;sensor_type;location;lat;lon;timestamp;P1;durP1;ratioP1;P2;durP2;ratioP2
6452;SDS011;3259;51.080;13.712;2023-05-29T00:01:25;3.67;;;3.38;;
6452;SDS011;3259;51.080;13.712;2023-05-29T00:04:14;4.13;;;3.78;;
6452;SDS011;3259;51.080;13.712;2023-05-29T00:07:03;3.42;;;3.13;;
6452;SDS011;3259;51.080;13.712;2023-05-29T00:09:54;3.90;;;3.47;;
6452;SDS011;3259;51.080;13.712;2023-05-29T00:13:06;3.88;;;3.58;;
6452;SDS011;3259;51.080;13.712;2023-05-29T00:15:55;7.22;;;4.00;;
6452;SDS011;3259;51.080;13.712;2023-05-29T00:18:44;5.20;;;3.22;;
6452;SDS011;3259;51.080;13.712;2023-05-29T00:21:33;4.35;;;3.50;;
6452;SDS011;3259;51.080;13.712;2023-05-29T00:24:46;3.90;;;3.30;;
6452;SDS011;3259;51.080;13.712;2023-05-29T00:28:00;3.67;;;2.70;;
6452;SDS011;3259;51.080;13.712;2023-05-29T00:30:49;3.42;;;3.03;;
6452;SDS011;3259;51.080;13.712;2023-05-29T00:33:38;3.58;;;3.25;;
6452;SDS011;3259;51.080;13.712;2023-05-29T00:36:31;4.80;;;3.30;;
6452;SDS011;3259;51.080;13.712;2023-05-29T00:39:45;3.35;;;3.05;;
6452;SDS011;3259;51.080;13.712;2023-05-29T00:42:58;6.20;;;3.45;;
6452;SDS011;3259;51.080;13.712;2023-05-29T00:45:51;3.65;;;3.33;;
6452;SDS011;3259;51.080;13.712;2023-05-29T00:48:41;5.35;;;3.33;;
6452;SDS011;3259;51.080;13.712;2023-05-29T00:51:31;4.28;;;3.03;;
6452;SDS011;3259;51.080;13.712;2023-05-29T01:01:37;4.25;;;3.28;;
6452;SDS011;3259;51.080;13.712;2023-05-29T01:04:51;3.70;;;2.85;;
6452;SDS011;3259;51.080;13.712;2023-05-29T01:08:05;3.88;;;2.53;;
6452;SDS011;3259;51.080;13.712;2023-05-29T01:11:19;3.50;;;3.20;;
6452;SDS011;3259;51.080;13.712;2023-05-29T01:14:41;3.05;;;2.75;;
6452;SDS011;3259;51.080;13.712;2023-05-29T01:17:47;5.00;;;3.25;;
6452;SDS011;3259;51.080;13.712;2023-05-29T01:20:50;3.78;;;2.70;;
6452;SDS011;3259;51.080;13.712;2023-05-29T01:23:51;4.45;;;3.22;;
6452;SDS011;3259;51.080;13.712;2023-05-29T01:26:53;4.40;;;3.03;;
6452;SDS011;3259;51.080;13.712;2023-05-29T01:29:44;4.18;;;3.13;;
6452;SDS011;3259;51.080;13.712;2023-05-29T01:32:59;3.13;;;2.83;;
6452;SDS011;3259;51.080;13.712;2023-05-29T01:35:48;3.58;;;2.75;;
6452;SDS011;3259;51.080;13.712;2023-05-29T01:38:37;3.05;;;2.75;;
6452;SDS011;3259;51.080;13.712;2023-05-29T01:41:28;2.60;;;2.40;;
6452;SDS011;3259;51.080;13.712;2023-05-29T01:44:19;3.10;;;2.78;;
6452;SDS011;3259;51.080;13.712;2023-05-29T01:47:36;2.97;;;2.58;;
6452;SDS011;3259;51.080;13.712;2023-05-29T01:50:48;2.80;;;2.60;;
6452;SDS011;3259;51.080;13.712;2023-05-29T01:53:40;4.25;;;2.92;;
6452;SDS011;3259;51.080;13.712;2023-05-29T01:56:32;3.35;;;2.70;;
6452;SDS011;3259;51.080;13.712;2023-05-29T01:59:22;4.93;;;2.38;;
6452;SDS011;3259;51.080;13.712;2023-05-29T02:02:12;2.42;;;2.17;;
6452;SDS011;3259;51.080;13.712;2023-05-29T02:05:00;4.05;;;2.72;;
6452;SDS011;3259;51.080;13.712;2023-05-29T02:08:13;2.90;;;2.13;;
6452;SDS011;3259;51.080;13.712;2023-05-29T02:11:03;4.03;;;3.10;;
6452;SDS011;3259;51.080;13.712;2023-05-29T02:13:52;3.15;;;2.70;;
6452;SDS011;3259;51.080;13.712;2023-05-29T02:17:06;2.70;;;2.50;;
6452;SDS011;3259;51.080;13.712;2023-05-29T02:19:59;3.33;;;2.72;;
6452;SDS011;3259;51.080;13.712;2023-05-29T02:23:12;2.85;;;2.65;;
6452;SDS011;3259;51.080;13.712;2023-05-29T02:26:01;2.60;;;2.40;;
6452;SDS011;3259;51.080;13.712;2023-05-29T02:32:30;5.13;;;2.25;;
6452;SDS011;3259;51.080;13.712;2023-05-29T02:35:20;2.78;;;2.58;;
6452;SDS011;3259;51.080;13.712;2023-05-29T02:38:57;3.20;;;2.90;;
6452;SDS011;3259;51.080;13.712;2023-05-29T02:41:46;3.90;;;2.60;;
6452;SDS011;3259;51.080;13.712;2023-05-29T02:44:35;3.10;;;2.90;;
6452;SDS011;3259;51.080;13.712;2023-05-29T02:55:53;2.40;;;2.17;;
6452;SDS011;3259;51.080;13.712;2023-05-29T02:58:42;3.15;;;2.25;;
6452;SDS011;3259;51.080;13.712;2023-05-29T03:01:31;2.63;;;2.08;;
6452;SDS011;3259;51.080;13.712;2023-05-29T03:04:24;2.30;;;2.00;;
6452;SDS011;3259;51.080;13.712;2023-05-29T03:07:13;3.83;;;2.70;;
6452;SDS011;3259;51.080;13.712;2023-05-29T03:10:01;2.83;;;2.63;;
6452;SDS011;3259;51.080;13.712;2023-05-29T03:13:16;2.70;;;2.53;;
6452;SDS011;3259;51.080;13.712;2023-05-29T03:16:30;2.63;;;2.35;;
6452;SDS011;3259;51.080;13.712;2023-05-29T03:19:43;2.63;;;2.35;;
6452;SDS011;3259;51.080;13.712;2023-05-29T03:22:33;3.03;;;2.05;;
6452;SDS011;3259;51.080;13.712;2023-05-29T03:25:22;2.75;;;2.50;;
6452;SDS011;3259;51.080;13.712;2023-05-29T03:28:36;2.78;;;2.58;;
6452;SDS011;3259;51.080;13.712;2023-05-29T03:31:25;2.67;;;2.47;;
6452;SDS011;3259;51.080;13.712;2023-05-29T03:34:14;2.55;;;2.00;;
6452;SDS011;3259;51.080;13.712;2023-05-29T03:37:04;2.95;;;2.60;;
6452;SDS011;3259;51.080;13.712;2023-05-29T03:39:54;2.67;;;2.47;;
6452;SDS011;3259;51.080;13.712;2023-05-29T03:42:43;2.47;;;2.28;;
6452;SDS011;3259;51.080;13.712;2023-05-29T03:45:33;2.83;;;2.65;;
6452;SDS011;3259;51.080;13.712;2023-05-29T03:48:21;2.78;;;2.22;;
6452;SDS011;3259;51.080;13.712;2023-05-29T03:51:34;2.83;;;2.25;;
6452;SDS011;3259;51.080;13.712;2023-05-29T03:54:23;2.30;;;2.10;;
6452;SDS011;3259;51.080;13.712;2023-05-29T03:57:36;2.92;;;2.65;;
6452;SDS011;3259;51.080;13.712;2023-05-29T04:04:30;4.97;;;2.45;;
6452;SDS011;3259;51.080;13.712;2023-05-29T04:07:43;2.75;;;2.55;;
6452;SDS011;3259;51.080;13.712;2023-05-29T04:10:56;2.88;;;2.65;;
6452;SDS011;3259;51.080;13.712;2023-05-29T04:14:09;2.47;;;2.28;;
6452;SDS011;3259;51.080;13.712;2023-05-29T04:17:24;3.38;;;2.40;;
6452;SDS011;3259;51.080;13.712;2023-05-29T04:20:36;2.28;;;2.08;;
6452;SDS011;3259;51.080;13.712;2023-05-29T04:23:48;2.47;;;2.28;;
6452;SDS011;3259;51.080;13.712;2023-05-29T04:26:37;3.05;;;2.85;;
6452;SDS011;3259;51.080;13.712;2023-05-29T04:29:28;4.68;;;2.75;;
6452;SDS011;3259;51.080;13.712;2023-05-29T04:32:42;2.67;;;2.47;;
6452;SDS011;3259;51.080;13.712;2023-05-29T04:35:55;2.80;;;2.60;;
6452;SDS011;3259;51.080;13.712;2023-05-29T04:38:46;5.88;;;3.28;;
6452;SDS011;3259;51.080;13.712;2023-05-29T04:41:39;2.88;;;2.33;;
6452;SDS011;3259;51.080;13.712;2023-05-29T04:44:27;3.13;;;2.70;;
6452;SDS011;3259;51.080;13.712;2023-05-29T04:55:22;4.63;;;2.58;;
6452;SDS011;3259;51.080;13.712;2023-05-29T04:58:35;3.03;;;2.80;;
6452;SDS011;3259;51.080;13.712;2023-05-29T05:01:47;3.72;;;2.95;;
6452;SDS011;3259;51.080;13.712;2023-05-29T05:05:00;2.53;;;2.35;;
6452;SDS011;3259;51.080;13.712;2023-05-29T05:08:15;3.13;;;2.85;;
6452;SDS011;3259;51.080;13.712;2023-05-29T05:11:03;2.97;;;2.67;;
6452;SDS011;3259;51.080;13.712;2023-05-29T05:14:16;3.22;;;2.75;;
6452;SDS011;3259;51.080;13.712;2023-05-29T05:17:28;3.00;;;2.70;;
6452;SDS011;3259;51.080;13.712;2023-05-29T05:20:19;2.88;;;2.67;;
6452;SDS011;3259;51.080;13.712;2023-05-29T05:23:08;2.53;;;2.25;;
6452;SDS011;3259;51.080;13.712;2023-05-29T05:26:01;4.00;;;2.60;;
6452;SDS011;3259;51.080;13.712;2023-05-29T05:29:14;2.15;;;2.05;;
6452;SDS011;3259;51.080;13.712;2023-05-29T05:32:27;2.95;;;2.65;;
6452;SDS011;3259;51.080;13.712;2023-05-29T05:35:40;4.65;;;2.28;;
6452;SDS011;3259;51.080;13.712;2023-05-29T05:38:53;3.67;;;2.95;;
6452;SDS011;3259;51.080;13.712;2023-05-29T05:41:43;3.47;;;2.78;;
6452;SDS011;3259;51.080;13.712;2023-05-29T05:44:32;7.75;;;3.55;;
6452;SDS011;3259;51.080;13.712;2023-05-29T05:59:04;3.13;;;2.70;;
6452;SDS011;3259;51.080;13.712;2023-05-29T06:02:17;4.55;;;2.63;;
6452;SDS011;3259;51.080;13.712;2023-05-29T06:05:06;6.32;;;3.10;;
6452;SDS011;3259;51.080;13.712;2023-05-29T06:11:09;7.40;;;2.75;;
6452;SDS011;3259;51.080;13.712;2023-05-29T06:13:58;3.40;;;3.10;;
6452;SDS011;3259;51.080;13.712;2023-05-29T06:17:12;4.65;;;3.17;;
6452;SDS011;3259;51.080;13.712;2023-05-29T06:20:25;4.82;;;3.10;;
6452;SDS011;3259;51.080;13.712;2023-05-29T06:23:15;3.38;;;3.08;;
6452;SDS011;3259;51.080;13.712;2023-05-29T06:26:04;4.03;;;3.30;;
6452;SDS011;3259;51.080;13.712;2023-05-29T06:37:24;6.85;;;3.28;;
6452;SDS011;3259;51.080;13.712;2023-05-29T06:40:37;3.40;;;2.97;;
6452;SDS011;3259;51.080;13.712;2023-05-29T06:43:49;3.50;;;2.90;;
6452;SDS011;3259;51.080;13.712;2023-05-29T06:47:02;4.53;;;3.15;;
6452;SDS011;3259;51.080;13.712;2023-05-29T06:49:51;4.45;;;2.55;;
6452;SDS011;3259;51.080;13.712;2023-05-29T06:52:41;3.17;;;2.65;;
6452;SDS011;3259;51.080;13.712;2023-05-29T06:55:53;3.85;;;2.60;;
6452;SDS011;3259;51.080;13.712;2023-05-29T06:58:42;5.05;;;2.65;;
6452;SDS011;3259;51.080;13.712;2023-05-29T07:01:32;4.75;;;2.75;;
6452;SDS011;3259;51.080;13.712;2023-05-29T07:04:22;3.45;;;3.15;;
6452;SDS011;3259;51.080;13.712;2023-05-29T07:07:11;3.30;;;2.33;;
6452;SDS011;3259;51.080;13.712;2023-05-29T07:10:01;3.28;;;2.90;;
6452;SDS011;3259;51.080;13.712;2023-05-29T07:12:49;7.60;;;3.40;;
6452;SDS011;3259;51.080;13.712;2023-05-29T07:15:38;3.35;;;3.05;;
6452;SDS011;3259;51.080;13.712;2023-05-29T07:18:27;3.47;;;2.92;;
6452;SDS011;3259;51.080;13.712;2023-05-29T07:21:18;5.28;;;2.97;;
6452;SDS011;3259;51.080;13.712;2023-05-29T07:24:07;4.80;;;3.40;;
6452;SDS011;3259;51.080;13.712;2023-05-29T07:26:58;14.15;;;2.47;;
6452;SDS011;3259;51.080;13.712;2023-05-29T07:29:46;2.95;;;2.25;;
6452;SDS011;3259;51.080;13.712;2023-05-29T07:32:35;5.20;;;2.88;;
6452;SDS011;3259;51.080;13.712;2023-05-29T07:35:24;3.95;;;2.90;;
6452;SDS011;3259;51.080;13.712;2023-05-29T07:38:12;3.55;;;3.13;;
6452;SDS011;3259;51.080;13.712;2023-05-29T07:41:01;4.13;;;3.00;;
6452;SDS011;3259;51.080;13.712;2023-05-29T07:43:51;4.72;;;2.42;;
6452;SDS011;3259;51.080;13.712;2023-05-29T07:46:42;5.13;;;2.42;;
6452;SDS011;3259;51.080;13.712;2023-05-29T07:49:30;3.20;;;2.90;;
6452;SDS011;3259;51.080;13.712;2023-05-29T07:52:19;4.20;;;2.95;;
6452;SDS011;3259;51.080;13.712;2023-05-29T07:55:08;3.25;;;2.53;;
6452;SDS011;3259;51.080;13.712;2023-05-29T07:57:56;5.63;;;2.97;;
6452;SDS011;3259;51.080;13.712;2023-05-29T08:00:47;3.17;;;2.70;;
6452;SDS011;3259;51.080;13.712;2023-05-29T08:03:36;2.80;;;2.60;;
6452;SDS011;3259;51.080;13.712;2023-05-29T08:06:25;4.20;;;2.40;;
6452;SDS011;3259;51.080;13.712;2023-05-29T08:09:15;3.10;;;2.70;;
6452;SDS011;3259;51.080;13.712;2023-05-29T08:12:05;4.63;;;2.75;;
6452;SDS011;3259;51.080;13.712;2023-05-29T08:14:53;2.22;;;2.10;;
6452;SDS011;3259;51.080;13.712;2023-05-29T08:17:43;2.90;;;2.55;;
6452;SDS011;3259;51.080;13.712;2023-05-29T08:20:32;3.92;;;2.85;;
6452;SDS011;3259;51.080;13.712;2023-05-29T08:23:21;2.75;;;2.30;;
6452;SDS011;3259;51.080;13.712;2023-05-29T08:26:10;5.53;;;2.08;;
6452;SDS011;3259;51.080;13.712;2023-05-29T08:28:59;4.00;;;2.22;;
6452;SDS011;3259;51.080;13.712;2023-05-29T08:31:48;4.05;;;1.83;;
6452;SDS011;3259;51.080;13.712;2023-05-29T08:34:38;2.55;;;1.70;;
6452;SDS011;3259;51.080;13.712;2023-05-29T08:37:28;2.20;;;1.75;;
6452;SDS011;3259;51.080;13.712;2023-05-29T08:40:17;3.30;;;1.83;;
6452;SDS011;3259;51.080;13.712;2023-05-29T08:43:07;2.50;;;1.88;;
6452;SDS011;3259;51.080;13.712;2023-05-29T08:46:03;5.55;;;2.25;;
6452;SDS011;3259;51.080;13.712;2023-05-29T08:48:52;3.20;;;1.80;;
6452;SDS011;3259;51.080;13.712;2023-05-29T08:51:47;5.95;;;1.95;;
6452;SDS011;3259;51.080;13.712;2023-05-29T08:54:41;3.00;;;1.98;;
6452;SDS011;3259;51.080;13.712;2023-05-29T08:57:31;3.80;;;2.10;;
6452;SDS011;3259;51.080;13.712;2023-05-29T09:00:21;2.22;;;1.90;;
6452;SDS011;3259;51.080;13.712;2023-05-29T09:03:15;3.38;;;2.50;;
6452;SDS011;3259;51.080;13.712;2023-05-29T09:06:04;3.00;;;1.48;;
6452;SDS011;3259;51.080;13.712;2023-05-29T09:08:55;3.47;;;1.80;;
6452;SDS011;3259;51.080;13.712;2023-05-29T09:11:44;4.65;;;1.92;;
6452;SDS011;3259;51.080;13.712;2023-05-29T09:14:33;2.22;;;1.80;;
6452;SDS011;3259;51.080;13.712;2023-05-29T09:17:23;4.43;;;1.73;;
6452;SDS011;3259;51.080;13.712;2023-05-29T09:20:15;2.35;;;1.50;;
6452;SDS011;3259;51.080;13.712;2023-05-29T09:23:05;2.17;;;1.98;;
6452;SDS011;3259;51.080;13.712;2023-05-29T09:25:57;2.30;;;1.85;;
6452;SDS011;3259;51.080;13.712;2023-05-29T09:28:46;1.80;;;1.65;;
6452;SDS011;3259;51.080;13.712;2023-05-29T09:31:35;1.92;;;1.83;;
6452;SDS011;3259;51.080;13.712;2023-05-29T09:34:35;2.97;;;1.42;;
6452;SDS011;3259;51.080;13.712;2023-05-29T09:37:23;4.03;;;1.63;;
6452;SDS011;3259;51.080;13.712;2023-05-29T09:40:12;3.72;;;1.98;;
6452;SDS011;3259;51.080;13.712;2023-05-29T09:43:03;2.70;;;1.92;;
6452;SDS011;3259;51.080;13.712;2023-05-29T09:45:54;5.60;;;1.40;;
6452;SDS011;3259;51.080;13.712;2023-05-29T09:48:42;2.47;;;1.60;;
6452;SDS011;3259;51.080;13.712;2023-05-29T09:51:32;3.45;;;1.88;;
6452;SDS011;3259;51.080;13.712;2023-05-29T09:54:23;2.42;;;1.92;;
6452;SDS011;3259;51.080;13.712;2023-05-29T09:57:12;2.05;;;1.88;;
6452;SDS011;3259;51.080;13.712;2023-05-29T10:00:04;3.30;;;2.00;;
6452;SDS011;3259;51.080;13.712;2023-05-29T10:02:59;3.95;;;1.98;;
6452;SDS011;3259;51.080;13.712;2023-05-29T10:05:49;5.28;;;1.50;;
6452;SDS011;3259;51.080;13.712;2023-05-29T10:08:40;2.95;;;1.58;;
6452;SDS011;3259;51.080;13.712;2023-05-29T10:11:35;4.07;;;1.77;;
6452;SDS011;3259;51.080;13.712;2023-05-29T10:14:28;2.42;;;1.40;;
6452;SDS011;3259;51.080;13.712;2023-05-29T10:17:22;1.65;;;1.55;;
6452;SDS011;3259;51.080;13.712;2023-05-29T10:20:14;4.43;;;2.13;;
6452;SDS011;3259;51.080;13.712;2023-05-29T10:23:05;1.48;;;1.40;;
6452;SDS011;3259;51.080;13.712;2023-05-29T10:25:58;3.35;;;1.77;;
6452;SDS011;3259;51.080;13.712;2023-05-29T10:28:53;2.30;;;1.80;;
6452;SDS011;3259;51.080;13.712;2023-05-29T10:31:48;4.70;;;1.63;;
6452;SDS011;3259;51.080;13.712;2023-05-29T10:34:53;1.95;;;1.85;;
6452;SDS011;3259;51.080;13.712;2023-05-29T10:37:49;2.03;;;1.50;;
6452;SDS011;3259;51.080;13.712;2023-05-29T10:40:44;2.50;;;1.95;;
6452;SDS011;3259;51.080;13.712;2023-05-29T10:43:34;4.50;;;2.08;;
6452;SDS011;3259;51.080;13.712;2023-05-29T10:49:50;2.97;;;1.80;;
6452;SDS011;3259;51.080;13.712;2023-05-29T10:52:45;3.05;;;1.90;;
6452;SDS011;3259;51.080;13.712;2023-05-29T10:55:35;1.95;;;1.70;;
6452;SDS011;3259;51.080;13.712;2023-05-29T10:58:24;1.83;;;1.70;;
6452;SDS011;3259;51.080;13.712;2023-05-29T11:01:14;2.25;;;1.42;;
6452;SDS011;3259;51.080;13.712;2023-05-29T11:07:33;1.45;;;1.35;;
6452;SDS011;3259;51.080;13.712;2023-05-29T11:13:32;3.83;;;1.90;;
6452;SDS011;3259;51.080;13.712;2023-05-29T11:16:35;3.22;;;1.73;;
6452;SDS011;3259;51.080;13.712;2023-05-29T11:19:24;6.80;;;1.73;;
6452;SDS011;3259;51.080;13.712;2023-05-29T11:22:15;3.42;;;1.80;;
6452;SDS011;3259;51.080;13.712;2023-05-29T11:25:14;1.60;;;1.50;;
6452;SDS011;3259;51.080;13.712;2023-05-29T11:28:03;4.90;;;2.05;;
6452;SDS011;3259;51.080;13.712;2023-05-29T11:30:55;2.28;;;2.08;;
6452;SDS011;3259;51.080;13.712;2023-05-29T11:33:51;1.38;;;1.30;;
6452;SDS011;3259;51.080;13.712;2023-05-29T11:36:43;2.65;;;2.25;;
6452;SDS011;3259;51.080;13.712;2023-05-29T11:39:35;4.22;;;1.95;;
6452;SDS011;3259;51.080;13.712;2023-05-29T11:42:26;2.88;;;1.48;;
6452;SDS011;3259;51.080;13.712;2023-05-29T11:45:16;3.58;;;2.28;;
6452;SDS011;3259;51.080;13.712;2023-05-29T11:48:06;3.20;;;1.73;;
6452;SDS011;3259;51.080;13.712;2023-05-29T11:50:55;2.83;;;1.55;;
6452;SDS011;3259;51.080;13.712;2023-05-29T11:53:46;4.90;;;2.03;;
6452;SDS011;3259;51.080;13.712;2023-05-29T11:56:36;2.22;;;1.95;;
6452;SDS011;3259;51.080;13.712;2023-05-29T11:59:29;6.38;;;2.25;;
6452;SDS011;3259;51.080;13.712;2023-05-29T12:02:18;3.53;;;2.00;;
6452;SDS011;3259;51.080;13.712;2023-05-29T12:05:08;2.13;;;2.00;;
6452;SDS011;3259;51.080;13.712;2023-05-29T12:07:59;2.40;;;1.75;;
6452;SDS011;3259;51.080;13.712;2023-05-29T12:10:51;2.88;;;1.92;;
6452;SDS011;3259;51.080;13.712;2023-05-29T12:13:41;4.28;;;2.03;;
6452;SDS011;3259;51.080;13.712;2023-05-29T12:16:32;4.70;;;1.65;;
6452;SDS011;3259;51.080;13.712;2023-05-29T12:19:22;3.75;;;1.70;;
6452;SDS011;3259;51.080;13.712;2023-05-29T12:22:11;2.30;;;1.75;;
6452;SDS011;3259;51.080;13.712;2023-05-29T12:25:03;2.75;;;1.85;;
6452;SDS011;3259;51.080;13.712;2023-05-29T12:27:55;4.95;;;1.83;;
6452;SDS011;3259;51.080;13.712;2023-05-29T12:30:48;2.15;;;1.77;;
6452;SDS011;3259;51.080;13.712;2023-05-29T12:33:42;2.33;;;2.08;;
6452;SDS011;3259;51.080;13.712;2023-05-29T12:36:31;2.17;;;1.98;;
6452;SDS011;3259;51.080;13.712;2023-05-29T12:39:20;2.13;;;1.48;;
6452;SDS011;3259;51.080;13.712;2023-05-29T12:42:09;1.73;;;1.40;;
6452;SDS011;3259;51.080;13.712;2023-05-29T12:45:00;3.45;;;2.15;;
6452;SDS011;3259;51.080;13.712;2023-05-29T12:47:51;2.53;;;1.50;;
6452;SDS011;3259;51.080;13.712;2023-05-29T12:50:42;5.57;;;2.17;;
6452;SDS011;3259;51.080;13.712;2023-05-29T12:53:31;3.13;;;1.98;;
6452;SDS011;3259;51.080;13.712;2023-05-29T12:56:19;3.30;;;1.90;;
6452;SDS011;3259;51.080;13.712;2023-05-29T12:59:10;2.45;;;1.60;;
6452;SDS011;3259;51.080;13.712;2023-05-29T13:01:59;1.90;;;1.63;;
6452;SDS011;3259;51.080;13.712;2023-05-29T13:04:48;2.95;;;1.90;;
6452;SDS011;3259;51.080;13.712;2023-05-29T13:07:38;3.65;;;1.85;;
6452;SDS011;3259;51.080;13.712;2023-05-29T13:10:27;2.63;;;1.88;;
6452;SDS011;3259;51.080;13.712;2023-05-29T13:13:16;2.22;;;2.00;;
6452;SDS011;3259;51.080;13.712;2023-05-29T13:16:06;2.40;;;1.83;;
6452;SDS011;3259;51.080;13.712;2023-05-29T13:18:55;4.80;;;2.10;;
6452;SDS011;3259;51.080;13.712;2023-05-29T13:21:44;2.38;;;1.70;;
6452;SDS011;3259;51.080;13.712;2023-05-29T13:24:36;1.92;;;1.75;;
6452;SDS011;3259;51.080;13.712;2023-05-29T13:27:25;4.85;;;2.50;;
6452;SDS011;3259;51.080;13.712;2023-05-29T13:30:15;3.08;;;2.45;;
6452;SDS011;3259;51.080;13.712;2023-05-29T13:33:04;6.15;;;2.47;;
6452;SDS011;3259;51.080;13.712;2023-05-29T13:35:53;2.95;;;1.70;;
6452;SDS011;3259;51.080;13.712;2023-05-29T13:38:44;2.40;;;1.80;;
6452;SDS011;3259;51.080;13.712;2023-05-29T13:41:34;3.15;;;1.70;;
6452;SDS011;3259;51.080;13.712;2023-05-29T13:44:23;2.15;;;1.88;;
6452;SDS011;3259;51.080;13.712;2023-05-29T13:47:12;5.60;;;2.00;;
6452;SDS011;3259;51.080;13.712;2023-05-29T13:50:01;3.25;;;2.15;;
6452;SDS011;3259;51.080;13.712;2023-05-29T13:52:50;4.65;;;2.05;;
6452;SDS011;3259;51.080;13.712;2023-05-29T13:55:39;2.60;;;2.40;;
6452;SDS011;3259;51.080;13.712;2023-05-29T13:58:29;1.40;;;1.40;;
6452;SDS011;3259;51.080;13.712;2023-05-29T14:01:17;4.35;;;1.67;;
6452;SDS011;3259;51.080;13.712;2023-05-29T14:04:07;10.60;;;2.42;;
6452;SDS011;3259;51.080;13.712;2023-05-29T14:06:56;4.35;;;1.73;;
6452;SDS011;3259;51.080;13.712;2023-05-29T14:09:45;6.82;;;2.67;;
6452;SDS011;3259;51.080;13.712;2023-05-29T14:12:34;3.75;;;2.00;;
6452;SDS011;3259;51.080;13.712;2023-05-29T14:15:24;5.55;;;2.28;;
6452;SDS011;3259;51.080;13.712;2023-05-29T14:18:12;3.80;;;1.90;;
6452;SDS011;3259;51.080;13.712;2023-05-29T14:21:01;3.45;;;1.80;;
6452;SDS011;3259;51.080;13.712;2023-05-29T14:23:50;2.65;;;1.92;;
6452;SDS011;3259;51.080;13.712;2023-05-29T14:26:39;2.83;;;2.20;;
6452;SDS011;3259;51.080;13.712;2023-05-29T14:29:29;4.80;;;1.90;;
6452;SDS011;3259;51.080;13.712;2023-05-29T14:32:19;2.25;;;2.13;;
6452;SDS011;3259;51.080;13.712;2023-05-29T14:35:09;4.07;;;2.75;;
6452;SDS011;3259;51.080;13.712;2023-05-29T14:37:58;2.67;;;2.22;;
6452;SDS011;3259;51.080;13.712;2023-05-29T14:40:47;2.33;;;1.70;;
6452;SDS011;3259;51.080;13.712;2023-05-29T14:43:54;2.70;;;1.95;;
6452;SDS011;3259;51.080;13.712;2023-05-29T14:46:44;4.22;;;2.17;;
6452;SDS011;3259;51.080;13.712;2023-05-29T14:49:34;2.70;;;2.22;;
6452;SDS011;3259;51.080;13.712;2023-05-29T14:52:23;4.18;;;2.25;;
6452;SDS011;3259;51.080;13.712;2023-05-29T14:55:12;2.25;;;1.55;;
6452;SDS011;3259;51.080;13.712;2023-05-29T14:58:02;3.10;;;1.83;;
6452;SDS011;3259;51.080;13.712;2023-05-29T15:00:51;7.60;;;2.28;;
6452;SDS011;3259;51.080;13.712;2023-05-29T15:03:40;4.90;;;2.33;;
6452;SDS011;3259;51.080;13.712;2023-05-29T15:06:30;2.90;;;2.20;;
6452;SDS011;3259;51.080;13.712;2023-05-29T15:09:19;6.80;;;1.80;;
6452;SDS011;3259;51.080;13.712;2023-05-29T15:12:08;2.72;;;1.98;;
6452;SDS011;3259;51.080;13.712;2023-05-29T15:14:57;4.95;;;2.53;;
6452;SDS011;3259;51.080;13.712;2023-05-29T15:17:46;2.25;;;2.05;;
6452;SDS011;3259;51.080;13.712;2023-05-29T15:20:37;2.33;;;2.13;;
6452;SDS011;3259;51.080;13.712;2023-05-29T15:23:28;6.57;;;2.53;;
6452;SDS011;3259;51.080;13.712;2023-05-29T15:26:20;5.00;;;2.10;;
6452;SDS011;3259;51.080;13.712;2023-05-29T15:29:09;2.90;;;1.98;;
6452;SDS011;3259;51.080;13.712;2023-05-29T15:31:58;5.30;;;2.30;;
6452;SDS011;3259;51.080;13.712;2023-05-29T15:34:46;3.95;;;2.20;;
6452;SDS011;3259;51.080;13.712;2023-05-29T15:37:35;3.70;;;2.00;;
6452;SDS011;3259;51.080;13.712;2023-05-29T15:40:25;3.03;;;2.35;;
6452;SDS011;3259;51.080;13.712;2023-05-29T15:43:14;7.53;;;2.35;;
6452;SDS011;3259;51.080;13.712;2023-05-29T15:46:02;2.22;;;2.03;;
6452;SDS011;3259;51.080;13.712;2023-05-29T15:48:51;3.53;;;1.90;;
6452;SDS011;3259;51.080;13.712;2023-05-29T15:51:40;7.75;;;2.22;;
6452;SDS011;3259;51.080;13.712;2023-05-29T15:54:29;5.28;;;2.25;;
6452;SDS011;3259;51.080;13.712;2023-05-29T15:57:19;3.65;;;2.13;;
6452;SDS011;3259;51.080;13.712;2023-05-29T16:00:08;5.72;;;2.65;;
6452;SDS011;3259;51.080;13.712;2023-05-29T16:02:58;4.30;;;2.42;;
6452;SDS011;3259;51.080;13.712;2023-05-29T16:05:47;4.80;;;2.63;;
6452;SDS011;3259;51.080;13.712;2023-05-29T16:08:36;2.67;;;2.13;;
6452;SDS011;3259;51.080;13.712;2023-05-29T16:11:27;6.32;;;2.28;;
6452;SDS011;3259;51.080;13.712;2023-05-29T16:14:17;4.00;;;2.13;;
6452;SDS011;3259;51.080;13.712;2023-05-29T16:17:06;2.42;;;2.10;;
6452;SDS011;3259;51.080;13.712;2023-05-29T16:19:55;3.40;;;2.42;;
6452;SDS011;3259;51.080;13.712;2023-05-29T16:22:45;5.20;;;2.63;;
6452;SDS011;3259;51.080;13.712;2023-05-29T16:25:34;2.50;;;2.30;;
6452;SDS011;3259;51.080;13.712;2023-05-29T16:28:22;4.15;;;2.40;;
6452;SDS011;3259;51.080;13.712;2023-05-29T16:31:13;5.07;;;3.13;;
6452;SDS011;3259;51.080;13.712;2023-05-29T16:34:02;90.65;;;31.58;;
6452;SDS011;3259;51.080;13.712;2023-05-29T16:36:51;184.15;;;91.40;;
6452;SDS011;3259;51.080;13.712;2023-05-29T16:39:40;230.82;;;126.47;;
6452;SDS011;3259;51.080;13.712;2023-05-29T16:42:29;530.25;;;337.50;;
6452;SDS011;3259;51.080;13.712;2023-05-29T16:45:19;628.67;;;404.92;;
6452;SDS011;3259;51.080;13.712;2023-05-29T16:48:09;608.38;;;392.52;;
6452;SDS011;3259;51.080;13.712;2023-05-29T16:50:58;529.38;;;334.17;;
6452;SDS011;3259;51.080;13.712;2023-05-29T16:53:47;435.35;;;242.60;;
6452;SDS011;3259;51.080;13.712;2023-05-29T16:56:36;194.50;;;95.68;;
6452;SDS011;3259;51.080;13.712;2023-05-29T16:59:25;261.52;;;132.10;;
6452;SDS011;3259;51.080;13.712;2023-05-29T17:02:13;177.93;;;88.93;;
6452;SDS011;3259;51.080;13.712;2023-05-29T17:05:04;114.68;;;59.15;;
6452;SDS011;3259;51.080;13.712;2023-05-29T17:07:53;97.22;;;47.08;;
6452;SDS011;3259;51.080;13.712;2023-05-29T17:10:42;85.25;;;41.40;;
6452;SDS011;3259;51.080;13.712;2023-05-29T17:13:32;39.25;;;22.13;;
6452;SDS011;3259;51.080;13.712;2023-05-29T17:16:20;40.53;;;22.40;;
6452;SDS011;3259;51.080;13.712;2023-05-29T17:19:09;30.55;;;16.30;;
6452;SDS011;3259;51.080;13.712;2023-05-29T17:22:00;21.75;;;13.25;;
6452;SDS011;3259;51.080;13.712;2023-05-29T17:24:49;20.58;;;12.23;;
6452;SDS011;3259;51.080;13.712;2023-05-29T17:27:38;17.00;;;10.73;;
6452;SDS011;3259;51.080;13.712;2023-05-29T17:30:27;12.18;;;5.90;;
6452;SDS011;3259;51.080;13.712;2023-05-29T17:33:16;9.75;;;6.05;;
6452;SDS011;3259;51.080;13.712;2023-05-29T17:36:05;11.73;;;5.85;;
6452;SDS011;3259;51.080;13.712;2023-05-29T17:38:55;10.07;;;4.40;;
6452;SDS011;3259;51.080;13.712;2023-05-29T17:41:44;11.07;;;4.75;;
6452;SDS011;3259;51.080;13.712;2023-05-29T17:44:33;6.10;;;3.08;;
6452;SDS011;3259;51.080;13.712;2023-05-29T17:47:23;7.70;;;3.78;;
6452;SDS011;3259;51.080;13.712;2023-05-29T17:50:12;3.97;;;2.70;;
6452;SDS011;3259;51.080;13.712;2023-05-29T17:53:00;3.95;;;3.10;;
6452;SDS011;3259;51.080;13.712;2023-05-29T17:55:50;4.07;;;2.95;;
6452;SDS011;3259;51.080;13.712;2023-05-29T17:58:40;3.22;;;2.70;;
6452;SDS011;3259;51.080;13.712;2023-05-29T18:01:29;3.20;;;2.38;;
6452;SDS011;3259;51.080;13.712;2023-05-29T18:04:18;2.53;;;1.90;;
6452;SDS011;3259;51.080;13.712;2023-05-29T18:07:07;3.42;;;2.90;;
6452;SDS011;3259;51.080;13.712;2023-05-29T18:09:58;5.05;;;2.53;;
6452;SDS011;3259;51.080;13.712;2023-05-29T18:12:48;2.33;;;2.00;;
6452;SDS011;3259;51.080;13.712;2023-05-29T18:15:38;2.85;;;1.90;;
6452;SDS011;3259;51.080;13.712;2023-05-29T18:18:26;2.25;;;2.00;;
6452;SDS011;3259;51.080;13.712;2023-05-29T18:21:15;4.45;;;2.05;;
6452;SDS011;3259;51.080;13.712;2023-05-29T18:24:04;4.25;;;2.50;;
6452;SDS011;3259;51.080;13.712;2023-05-29T18:26:54;2.17;;;1.92;;
6452;SDS011;3259;51.080;13.712;2023-05-29T18:29:44;3.80;;;2.75;;
6452;SDS011;3259;51.080;13.712;2023-05-29T18:32:37;3.08;;;2.28;;
6452;SDS011;3259;51.080;13.712;2023-05-29T18:35:26;2.95;;;2.40;;
6452;SDS011;3259;51.080;13.712;2023-05-29T18:38:15;4.30;;;2.65;;
6452;SDS011;3259;51.080;13.712;2023-05-29T18:41:03;4.18;;;2.38;;